createdAt,value
2022-10-09T03:45:23.436Z,25.70
2022-10-09T03:50:29.799Z,21.17
2022-10-09T04:23:10.155Z,23.13
2022-10-09T04:28:15.713Z,28.15
2022-10-09T04:33:21.039Z,26.75
2022-10-09T04:38:32.159Z,22.15
2022-10-09T04:55:48.257Z,26.20
2022-10-09T05:00:53.413Z,25.52
2022-10-09T06:20:19.722Z,21.80
2022-10-09T06:25:33.519Z,21.88
2022-10-09T06:48:59.358Z,21.40
2022-10-09T06:54:22.828Z,20.73
2022-10-09T07:12:15.658Z,19.77
2022-10-09T07:17:29.832Z,28.08
2022-10-09T07:22:35.908Z,25.48
2022-10-09T07:27:43.560Z,23.63
2022-10-09T07:32:48.710Z,22.70
2022-10-09T07:37:54.787Z,19.30
2022-10-09T07:43:02.492Z,20.27
2022-10-09T07:48:07.837Z,24.70
2022-10-09T07:53:12.926Z,17.38
2022-10-09T07:58:23.543Z,25.20
2022-10-09T08:03:28.664Z,16.10
2022-10-09T08:08:33.801Z,21.40
2022-10-09T08:13:42.222Z,20.67
2022-10-09T08:19:05.465Z,24.10
2022-10-09T08:24:12.801Z,22.63
2022-10-09T08:29:24.977Z,19.50
2022-10-09T08:35:21.833Z,15.80
2022-10-09T08:40:42.336Z,19.42
2022-10-09T08:45:58.375Z,20.33
2022-10-09T08:51:09.492Z,27.08
2022-10-09T08:56:17.888Z,18.38
2022-10-09T10:25:39.747Z,17.10
2022-10-09T10:30:47.968Z,12.55
2022-10-09T10:35:57.257Z,20.00
2022-10-09T10:41:19.485Z,13.38
2022-10-09T10:46:36.638Z,16.23
2022-10-09T10:52:05.791Z,14.48
2022-10-09T10:57:26.379Z,21.00
2022-10-09T11:03:06.916Z,13.73
2022-10-09T11:08:35.159Z,15.52
2022-10-09T11:13:52.599Z,14.13
2022-10-09T11:19:09.167Z,19.27
2022-10-09T11:24:38.189Z,17.50
2022-10-09T11:29:51.521Z,16.55
2022-10-09T11:35:01.595Z,12.85
2022-10-09T11:40:15.822Z,14.35
2022-10-09T11:45:29.534Z,15.43
2022-10-09T11:51:20.859Z,18.25
2022-10-09T12:02:33.637Z,15.65
2022-10-09T12:07:40.461Z,12.43
2022-10-09T12:12:48.552Z,14.20
2022-10-09T12:17:56.623Z,18.50
2022-10-09T12:23:25.183Z,13.00
2022-10-09T12:28:32.729Z,12.93
2022-10-09T12:33:44.966Z,11.82
2022-10-09T12:39:19.659Z,13.23
2022-10-09T12:44:31.586Z,8.00
2022-10-09T12:49:43.703Z,8.30
2022-10-09T12:54:51.577Z,10.27
2022-10-09T13:00:02.943Z,10.45
2022-10-09T13:05:11.248Z,9.45
2022-10-09T13:10:21.304Z,9.13
2022-10-09T13:15:32.952Z,10.40
2022-10-09T13:20:40.843Z,7.75
2022-10-09T13:25:46.507Z,8.02
2022-10-09T13:30:51.862Z,6.75
2022-10-09T13:36:03.418Z,9.30
2022-10-09T13:41:19.345Z,7.72
2022-10-09T13:46:24.522Z,9.68
2022-10-09T13:51:33.747Z,9.20
2022-10-09T13:57:03.438Z,7.40
2022-10-09T14:02:11.506Z,14.23
2022-10-09T14:07:30.425Z,9.88
2022-10-09T14:12:35.703Z,8.68
2022-10-09T14:17:41.060Z,7.22
2022-10-09T14:22:49.701Z,8.85
2022-10-09T14:27:55.192Z,6.10
2022-10-09T14:33:00.540Z,8.25
2022-10-09T14:38:10.772Z,11.30
2022-10-09T14:43:16.157Z,7.22
2022-10-09T14:48:21.530Z,9.50
2022-10-09T14:53:29.352Z,11.95
2022-10-09T14:58:34.532Z,10.82
2022-10-09T15:03:39.891Z,8.25
2022-10-09T15:08:48.338Z,7.57
2022-10-09T15:13:53.492Z,7.22
2022-10-09T15:18:59.428Z,12.68
2022-10-09T15:24:07.969Z,7.15
2022-10-09T15:29:14.067Z,9.57
2022-10-09T15:34:21.216Z,8.00
2022-10-09T15:44:34.076Z,8.10
2022-10-09T15:49:39.364Z,9.50
2022-10-09T15:54:47.368Z,8.13
2022-10-09T15:59:52.621Z,11.38
2022-10-09T16:04:57.667Z,10.10
2022-10-09T16:10:05.464Z,9.00
2022-10-09T16:15:13.809Z,9.30
